createdAt,value
2019-03-20T00:04:09.109Z,9.28
2019-03-20T00:09:11.226Z,9.03
2019-03-20T00:14:13.284Z,8.23
2019-03-20T00:19:15.383Z,7.83
2019-03-20T00:24:17.885Z,8.15
2019-03-20T00:29:19.938Z,8.33
2019-03-20T00:34:22.232Z,8.08
2019-03-20T00:39:24.295Z,7.70
2019-03-20T00:44:26.450Z,7.85
2019-03-20T00:49:28.466Z,6.95
2019-03-20T00:54:30.536Z,8.60
2019-03-20T00:59:32.536Z,7.58
2019-03-20T01:04:34.718Z,7.78
2019-03-20T01:09:36.933Z,9.25
2019-03-20T01:14:39.052Z,8.88
2019-03-20T01:19:41.360Z,8.48
2019-03-20T01:24:43.807Z,7.83
2019-03-20T01:29:45.871Z,9.30
2019-03-20T01:34:48.040Z,8.03
2019-03-20T01:39:50.442Z,8.75
2019-03-20T01:44:53.987Z,8.00
2019-03-20T01:49:56.037Z,8.68
2019-03-20T01:54:58.138Z,8.25
2019-03-20T02:00:00.342Z,8.13
2019-03-20T02:05:03.802Z,7.85
2019-03-20T02:10:07.011Z,7.65
2019-03-20T02:15:10.998Z,7.30
2019-03-20T02:20:14.162Z,8.40
2019-03-20T02:25:17.840Z,8.08
2019-03-20T02:30:20.203Z,8.48
2019-03-20T02:35:22.212Z,7.90
2019-03-20T02:40:24.521Z,8.05
2019-03-20T02:45:26.590Z,7.95
2019-03-20T02:50:29.080Z,8.55
2019-03-20T02:55:31.133Z,7.78
2019-03-20T03:00:33.538Z,8.03
2019-03-20T03:05:35.806Z,8.83
2019-03-20T03:10:37.844Z,8.93
2019-03-20T03:15:40.625Z,7.90
2019-03-20T03:20:42.629Z,8.78
2019-03-20T03:25:45.044Z,7.22
2019-03-20T03:30:47.157Z,7.95
2019-03-20T03:35:49.195Z,7.85
2019-03-20T03:40:54.000Z,8.73
2019-03-20T03:45:58.178Z,8.13
2019-03-20T03:51:00.603Z,7.75
2019-03-20T03:56:02.983Z,8.18
2019-03-20T04:01:05.028Z,7.28
2019-03-20T04:06:07.521Z,7.70
2019-03-20T04:11:09.829Z,8.55
2019-03-20T04:16:12.422Z,8.15
2019-03-20T04:21:14.542Z,8.10
2019-03-20T04:26:16.539Z,8.83
2019-03-20T04:31:18.881Z,8.35
2019-03-20T04:36:20.957Z,8.35
2019-03-20T04:41:22.998Z,8.78
2019-03-20T04:46:25.087Z,8.15
2019-03-20T04:51:27.120Z,9.10
2019-03-20T04:56:29.400Z,7.97
2019-03-20T05:01:31.459Z,7.83
2019-03-20T05:06:33.984Z,8.08
2019-03-20T05:11:35.984Z,7.30
2019-03-20T05:16:38.105Z,6.90
2019-03-20T05:21:40.623Z,7.65
2019-03-20T05:26:42.815Z,6.65
2019-03-20T05:31:45.033Z,6.80
2019-03-20T05:36:47.225Z,6.33
2019-03-20T05:41:49.275Z,6.22
2019-03-20T05:46:51.432Z,7.15
2019-03-20T05:51:53.504Z,7.35
2019-03-20T05:56:55.722Z,7.60
2019-03-20T06:01:57.883Z,7.30
2019-03-20T06:07:00.225Z,7.80
2019-03-20T06:12:02.422Z,7.05
2019-03-20T06:17:04.505Z,7.30
2019-03-20T06:22:06.547Z,7.20
2019-03-20T06:27:08.870Z,7.85
2019-03-20T06:32:11.328Z,7.80
2019-03-20T06:37:13.435Z,8.08
2019-03-20T06:42:15.480Z,7.22
2019-03-20T06:47:17.562Z,7.30
2019-03-20T06:52:24.511Z,7.83
2019-03-20T06:57:26.798Z,8.28
2019-03-20T07:02:28.849Z,7.70
2019-03-20T07:07:43.670Z,8.58
2019-03-20T07:12:38.743Z,8.03
2019-03-20T07:17:41.055Z,8.73
2019-03-20T07:22:43.389Z,9.20
2019-03-20T07:27:45.472Z,8.58
2019-03-20T07:32:47.571Z,8.18
2019-03-20T07:37:55.913Z,7.83
2019-03-20T07:42:53.786Z,8.68
2019-03-20T07:47:56.154Z,8.33
2019-03-20T07:52:58.303Z,8.83
2019-03-20T07:58:00.558Z,8.93
2019-03-20T08:03:02.699Z,9.10
2019-03-20T08:08:07.663Z,9.08
2019-03-20T08:13:08.744Z,9.03
2019-03-20T08:18:12.083Z,9.30
2019-03-20T08:23:14.170Z,9.08
2019-03-20T08:28:16.126Z,8.15
2019-03-20T08:33:18.287Z,9.20
2019-03-20T08:38:21.490Z,8.23
2019-03-20T08:43:23.565Z,8.10
2019-03-20T08:48:25.916Z,8.53
2019-03-20T08:53:27.987Z,8.30
2019-03-20T08:58:30.392Z,8.80
2019-03-20T09:03:32.419Z,8.73
2019-03-20T09:08:34.453Z,8.98
2019-03-20T09:13:36.724Z,7.70
2019-03-20T09:18:38.782Z,8.43
2019-03-20T09:23:40.984Z,7.87
2019-03-20T09:28:43.293Z,8.45
2019-03-20T09:33:45.438Z,8.55
2019-03-20T09:38:47.439Z,8.55
2019-03-20T09:43:49.596Z,8.30
2019-03-20T09:48:51.679Z,9.18
2019-03-20T09:53:53.736Z,7.12
2019-03-20T09:58:55.781Z,6.90
2019-03-20T10:03:57.922Z,6.97
2019-03-20T10:09:01.923Z,7.05
2019-03-20T10:14:06.429Z,6.60
2019-03-20T10:19:08.489Z,6.10
2019-03-20T10:24:11.021Z,6.75
2019-03-20T10:29:13.435Z,4.60
2019-03-20T10:34:15.496Z,4.67
2019-03-20T10:39:17.897Z,4.20
2019-03-20T10:44:20.082Z,4.17
2019-03-20T10:49:23.461Z,3.67
2019-03-20T10:54:25.489Z,3.98
2019-03-20T10:59:27.691Z,3.87
2019-03-20T11:04:31.004Z,4.08
2019-03-20T11:09:33.097Z,3.85
2019-03-20T11:14:35.393Z,3.60
2019-03-20T11:19:37.560Z,4.28
2019-03-20T11:24:39.605Z,4.28
2019-03-20T11:29:41.789Z,3.70
2019-03-20T11:34:44.212Z,3.70
2019-03-20T11:39:46.708Z,3.65
2019-03-20T11:44:48.788Z,4.05
2019-03-20T11:49:50.855Z,3.50
2019-03-20T11:54:53.232Z,4.05
2019-03-20T11:59:55.381Z,3.60
2019-03-20T12:04:57.451Z,3.80
2019-03-20T12:09:59.566Z,3.85
2019-03-20T12:15:01.569Z,3.87
2019-03-20T12:20:05.928Z,4.00
2019-03-20T12:25:10.620Z,4.10
2019-03-20T12:30:14.703Z,4.05
2019-03-20T12:35:16.978Z,4.60
2019-03-20T12:40:23.571Z,4.10
2019-03-20T12:45:27.358Z,3.25
2019-03-20T12:50:29.712Z,3.60
2019-03-20T12:55:31.868Z,3.62
2019-03-20T13:00:33.990Z,3.42
2019-03-20T13:05:36.141Z,3.80
2019-03-20T13:10:38.235Z,3.90
2019-03-20T13:15:40.456Z,3.40
2019-03-20T13:20:42.781Z,3.75
2019-03-20T13:25:44.871Z,3.55
2019-03-20T13:30:56.040Z,3.60
2019-03-20T13:35:58.181Z,3.95
2019-03-20T13:41:00.642Z,3.75
2019-03-20T13:46:02.942Z,3.17
2019-03-20T13:51:05.182Z,3.80
2019-03-20T13:56:07.599Z,4.25
2019-03-20T14:01:09.585Z,4.47
2019-03-20T14:06:11.673Z,3.40
2019-03-20T14:11:14.223Z,3.83
2019-03-20T14:16:16.366Z,5.55
2019-03-20T14:21:18.426Z,3.80
2019-03-20T14:26:20.723Z,3.98
2019-03-20T14:31:24.786Z,4.00
2019-03-20T14:36:26.977Z,3.70
2019-03-20T14:41:29.018Z,3.55
2019-03-20T14:46:31.092Z,3.95
2019-03-20T14:51:33.474Z,3.67
2019-03-20T14:56:35.845Z,3.70
2019-03-20T15:01:37.906Z,3.65
2019-03-20T15:06:39.940Z,4.35
2019-03-20T15:11:42.146Z,3.50
2019-03-20T15:16:44.225Z,3.65
2019-03-20T15:21:46.285Z,3.90
2019-03-20T15:26:50.560Z,3.85
2019-03-20T15:31:52.727Z,3.77
2019-03-20T15:36:57.530Z,3.98
2019-03-20T15:41:59.738Z,4.37
2019-03-20T15:47:06.764Z,4.22
2019-03-20T15:52:08.805Z,4.00
2019-03-20T15:57:11.115Z,4.00
2019-03-20T16:02:13.210Z,4.22
2019-03-20T16:07:15.314Z,4.00
2019-03-20T16:12:17.369Z,4.17
2019-03-20T16:17:19.469Z,4.40
2019-03-20T16:22:21.488Z,4.15
2019-03-20T16:27:23.766Z,5.00
2019-03-20T16:32:25.991Z,4.30
2019-03-20T16:37:28.612Z,3.90
2019-03-20T16:42:30.738Z,4.00
2019-03-20T16:47:33.069Z,4.10
2019-03-20T16:52:36.268Z,5.40
2019-03-20T16:57:38.568Z,4.60
2019-03-20T17:02:40.760Z,4.55
2019-03-20T17:07:42.844Z,4.62
2019-03-20T17:12:45.102Z,5.10
2019-03-20T17:17:47.576Z,4.58
2019-03-20T17:22:49.917Z,4.55
2019-03-20T17:27:52.007Z,4.87
2019-03-20T17:32:54.148Z,5.05
2019-03-20T17:37:56.356Z,4.65
2019-03-20T17:42:58.512Z,4.50
2019-03-20T17:48:00.868Z,4.80
2019-03-20T17:53:03.733Z,5.90
2019-03-20T17:58:05.806Z,4.50
2019-03-20T18:03:08.141Z,4.90
2019-03-20T18:08:10.321Z,4.92
2019-03-20T18:13:12.475Z,4.97
2019-03-20T18:18:14.501Z,5.47
2019-03-20T18:23:16.779Z,4.60
2019-03-20T18:28:19.233Z,5.10
2019-03-20T18:33:22.872Z,5.28
2019-03-20T18:38:25.214Z,5.55
2019-03-20T18:43:27.295Z,6.40
2019-03-20T18:48:29.625Z,5.90
2019-03-20T18:53:31.966Z,5.75
2019-03-20T18:58:34.147Z,5.95
2019-03-20T19:03:39.060Z,5.67
2019-03-20T19:08:41.243Z,6.53
2019-03-20T19:13:43.453Z,8.28
2019-03-20T19:18:45.596Z,7.78
2019-03-20T19:23:47.702Z,8.43
2019-03-20T19:28:49.766Z,8.05
2019-03-20T19:33:52.116Z,8.93
2019-03-20T19:38:54.249Z,9.58
2019-03-20T19:43:56.320Z,8.98
2019-03-20T19:48:58.434Z,9.50
2019-03-20T19:54:00.642Z,9.05
2019-03-20T19:59:03.213Z,10.05
2019-03-20T20:04:05.299Z,9.33
2019-03-20T20:09:08.437Z,9.38
2019-03-20T20:14:10.583Z,9.90
2019-03-20T20:19:12.676Z,9.30
2019-03-20T20:24:14.786Z,9.10
2019-03-20T20:29:16.848Z,8.98
2019-03-20T20:34:19.025Z,8.55
2019-03-20T20:39:21.318Z,9.50
2019-03-20T20:44:23.402Z,8.90
2019-03-20T20:49:25.563Z,9.80
2019-03-20T20:54:27.768Z,9.53
2019-03-20T20:59:30.179Z,9.60
2019-03-20T21:04:32.503Z,9.35
2019-03-20T21:09:34.607Z,9.15
2019-03-20T21:14:36.743Z,10.55
2019-03-20T21:19:39.531Z,9.70
2019-03-20T21:24:42.220Z,9.60
2019-03-20T21:30:27.671Z,9.90
2019-03-20T21:36:25.143Z,10.10
2019-03-20T21:42:13.591Z,9.03
2019-03-20T21:47:34.049Z,9.43
2019-03-20T21:52:37.380Z,9.38
2019-03-20T21:58:05.546Z,10.03
2019-03-20T22:03:08.225Z,10.85
2019-03-20T22:08:10.870Z,10.43
2019-03-20T22:13:23.635Z,10.72
2019-03-20T22:19:03.021Z,9.58
2019-03-20T22:24:49.894Z,9.70
2019-03-20T22:29:52.458Z,9.58
2019-03-20T22:35:36.725Z,9.00
2019-03-20T22:41:28.303Z,8.68
2019-03-20T22:47:06.550Z,9.05
2019-03-20T22:52:37.269Z,9.03
2019-03-20T22:58:35.921Z,9.10
2019-03-20T23:03:42.441Z,9.93
2019-03-20T23:08:45.115Z,9.25
2019-03-20T23:13:47.773Z,9.40
2019-03-20T23:18:50.487Z,9.30
2019-03-20T23:23:53.183Z,9.33
2019-03-20T23:28:55.904Z,9.93
2019-03-20T23:33:58.611Z,10.13
2019-03-20T23:39:01.354Z,10.00
2019-03-20T23:44:03.911Z,9.43
2019-03-20T23:49:12.395Z,9.13
2019-03-20T23:54:18.438Z,9.93
2019-03-20T23:59:21.069Z,9.53
